Northampton, United Kingdom
Current Conditions -  °F | °C
As of 9:20 AM on Monday 20 Oct 2014 (Local Time) from EGTC Reporting Station
Few Clouds Few Clouds  
Wind Chill: 54°   Ceiling: Unl
Heat Index: 54°   Visibility: 6mi
Dew Point: 54°   Wind: 13mph
Humidity: 100%   Direction: 220°SW
Pressure: 29.97"   Gusts: NA
Location:  52.24°N, 0.9°W
Report Text: EGTC 200820Z 22011KT 9999 FEW018 12/12 Q1015
Loading
Personal Weather Stations






























Interactive Weather Map
Tropical Storm Tracking
New forecast layout! Learn more

10-Day Weather Forecast

Advertisements
Track Severe Weather on mobile